Map

Track Data

SID SEASON NUMBER BASIN SUBBASIN NAME ISO_TIME NATURE LAT LON WMO_WIND WMO_PRES WMO_AGENCY TRACK_TYPE DIST2LAND LANDFALL IFLAG USA_AGENCY USA_ATCF_ID USA_LAT USA_LON USA_RECORD USA_STATUS USA_WIND USA_PRES USA_SSHS USA_R34_NE USA_R34_SE USA_R34_SW USA_R34_NW USA_R50_NE USA_R50_SE USA_R50_SW USA_R50_NW USA_R64_NE USA_R64_SE USA_R64_SW USA_R64_NW USA_POCI USA_ROCI USA_RMW USA_EYE TOKYO_LAT TOKYO_LON TOKYO_GRADE TOKYO_WIND TOKYO_PRES TOKYO_R50_DIR TOKYO_R50_LONG TOKYO_R50_SHORT TOKYO_R30_DIR TOKYO_R30_LONG TOKYO_R30_SHORT TOKYO_LAND CMA_LAT CMA_LON CMA_CAT CMA_WIND CMA_PRES HKO_LAT HKO_LON HKO_CAT HKO_WIND HKO_PRES NEWDELHI_LAT NEWDELHI_LON NEWDELHI_GRADE NEWDELHI_WIND NEWDELHI_PRES NEWDELHI_CI NEWDELHI_DP NEWDELHI_POCI REUNION_LAT REUNION_LON REUNION_TYPE REUNION_WIND REUNION_PRES REUNION_TNUM REUNION_CI REUNION_RMW REUNION_R34_NE REUNION_R34_SE REUNION_R34_SW REUNION_R34_NW REUNION_R50_NE REUNION_R50_SE REUNION_R50_SW REUNION_R50_NW REUNION_R64_NE REUNION_R64_SE REUNION_R64_SW REUNION_R64_NW BOM_LAT BOM_LON BOM_TYPE BOM_WIND BOM_PRES BOM_TNUM BOM_CI BOM_RMW BOM_R34_NE BOM_R34_SE BOM_R34_SW BOM_R34_NW BOM_R50_NE BOM_R50_SE BOM_R50_SW BOM_R50_NW BOM_R64_NE BOM_R64_SE BOM_R64_SW BOM_R64_NW BOM_ROCI BOM_POCI BOM_EYE BOM_POS_METHOD BOM_PRES_METHOD NADI_LAT NADI_LON NADI_CAT NADI_WIND NADI_PRES WELLINGTON_LAT WELLINGTON_LON WELLINGTON_WIND WELLINGTON_PRES DS824_LAT DS824_LON DS824_STAGE DS824_WIND DS824_PRES TD9636_LAT TD9636_LON TD9636_STAGE TD9636_WIND TD9636_PRES TD9635_LAT TD9635_LON TD9635_WIND TD9635_PRES TD9635_ROCI NEUMANN_LAT NEUMANN_LON NEUMANN_CLASS NEUMANN_WIND NEUMANN_PRES MLC_LAT MLC_LON MLC_CLASS MLC_WIND MLC_PRES USA_GUST BOM_GUST BOM_GUST_PER REUNION_GUST REUNION_GUST_PER USA_SEAHGT USA_SEARAD_NE USA_SEARAD_SE USA_SEARAD_SW USA_SEARAD_NW STORM_SPEED STORM_DIR
1936188N09142 1936 24 WP MM NOT_NAMED 1936-07-06 10:00:00 NR 9.20000 141.800 main 1274 1270 __________O___ -1 9.20000 141.800 7 28 306
1936188N09142 1936 24 WP MM NOT_NAMED 1936-07-06 12:00:00 NR 9.75058 141.043 main 1314 1310 __________P___ -1 9.75058 141.043 7 27 306
1936188N09142 1936 24 WP MM NOT_NAMED 1936-07-06 15:00:00 NR 10.5437 139.931 main 1341 1348 __________P___ -1 10.5437 139.931 7 26 305
1936188N09142 1936 24 WP MM NOT_NAMED 1936-07-06 18:00:00 NR 11.2558 138.892 main 1393 1323 __________P___ -1 11.2558 138.892 7 23 304
1936188N09142 1936 24 WP MM NOT_NAMED 1936-07-06 21:00:00 NR 11.8409 137.972 main 1323 1296 __________P___ -1 11.8409 137.972 7 21 303
1936188N09142 1936 24 WP MM NOT_NAMED 1936-07-06 22:00:00 NR 12.0000 137.700 main 1296 1250 __________O___ -1 12.0000 137.700 7 17 299
1936188N09142 1936 24 WP MM NOT_NAMED 1936-07-07 00:00:00 NR 12.2593 137.215 main 1250 1188 __________P___ -1 12.2593 137.215 7 14 296
1936188N09142 1936 24 WP MM NOT_NAMED 1936-07-07 03:00:00 NR 12.5300 136.602 main 1188 1137 __________P___ -1 12.5300 136.602 7 12 292
1936188N09142 1936 24 WP MM NOT_NAMED 1936-07-07 06:00:00 NR 12.7087 136.074 main 1137 1085 __________P___ -1 12.7087 136.074 7 11 288
1936188N09142 1936 24 WP MM NOT_NAMED 1936-07-07 09:00:00 NR 12.8511 135.572 main 1087 1066 __________P___ -1 12.8511 135.572 7 10 286
1936188N09142 1936 24 WP MM NOT_NAMED 1936-07-07 10:00:00 NR 12.9000 135.400 main 1066 1036 __________O___ -1 12.9000 135.400 7 11 290
1936188N09142 1936 24 WP MM NOT_NAMED 1936-07-07 12:00:00 NR 13.0296 135.065 main 1036 988 __________P___ -1 13.0296 135.065 7 11 291
1936188N09142 1936 24 WP MM NOT_NAMED 1936-07-07 15:00:00 NR 13.2181 134.558 main 988 931 __________P___ -1 13.2181 134.558 7 11 290
1936188N09142 1936 24 WP MM NOT_NAMED 1936-07-07 18:00:00 NR 13.4115 133.985 main 931 860 __________P___ -1 13.4115 133.985 7 13 288
1936188N09142 1936 24 WP MM NOT_NAMED 1936-07-07 21:00:00 NR 13.6232 133.277 main 860 840 __________P___ -1 13.6232 133.277 7 15 287
1936188N09142 1936 24 WP MM NOT_NAMED 1936-07-07 22:00:00 NR 13.7000 133.000 main 830 761 __________O___ -1 13.7000 133.000 7 20 285
1936188N09142 1936 24 WP MM NOT_NAMED 1936-07-08 00:00:00 NR 13.8796 132.286 main 761 646 __________P___ -1 13.8796 132.286 7 23 284
1936188N09142 1936 24 WP MM NOT_NAMED 1936-07-08 03:00:00 NR 14.1670 131.069 main 646 531 __________P___ -1 14.1670 131.069 7 25 283
1936188N09142 1936 24 WP MM NOT_NAMED 1936-07-08 06:00:00 NR 14.4542 129.804 main 531 436 __________P___ -1 14.4542 129.804 7 24 283
1936188N09142 1936 24 WP MM NOT_NAMED 1936-07-08 09:00:00 NR 14.7196 128.640 main 436 427 __________P___ -1 14.7196 128.640 7 22 283
1936188N09142 1936 24 WP MM NOT_NAMED 1936-07-08 10:00:00 NR 14.8000 128.300 main 420 383 __________O___ -1 14.8000 128.300 3 16 285
1936188N09142 1936 24 WP MM NOT_NAMED 1936-07-08 12:00:00 NR 14.9250 127.836 main 383 340 __________P___ -1 14.9250 127.836 3 12 287
1936188N09142 1936 24 WP MM NOT_NAMED 1936-07-08 15:00:00 NR 15.0897 127.293 main 340 296 __________P___ -1 15.0897 127.293 3 10 288
1936188N09142 1936 24 WP MM NOT_NAMED 1936-07-08 18:00:00 NR 15.2502 126.807 main 302 256 __________P___ -1 15.2502 126.807 3 11 289
1936188N09142 1936 24 WP MM NOT_NAMED 1936-07-08 21:00:00 NR 15.4311 126.235 main 256 248 __________P___ -1 15.4311 126.235 3 12 288
1936188N09142 1936 24 WP MM NOT_NAMED 1936-07-08 22:00:00 NR 15.5000 126.000 main 248 214 __________O___ -1 15.5000 126.000 4 17 283
1936188N09142 1936 24 WP MM NOT_NAMED 1936-07-09 00:00:00 NR 15.6200 125.366 main 214 195 __________P___ -1 15.6200 125.366 4 20 281
1936188N09142 1936 24 WP MM NOT_NAMED 1936-07-09 03:00:00 NR 15.8234 124.277 main 201 96 __________P___ -1 15.8234 124.277 4 22 282
1936188N09142 1936 24 WP MM NOT_NAMED 1936-07-09 06:00:00 NR 16.0875 123.092 main 96 0 __________P___ -1 16.0875 123.092 4 24 285
1936188N09142 1936 24 WP MM NOT_NAMED 1936-07-09 09:00:00 NR 16.4503 121.890 main 0 0 __________P___ -1 16.4503 121.890 4 24 289
1936188N09142 1936 24 WP MM NOT_NAMED 1936-07-09 10:00:00 NR 16.6000 121.500 main 0 0 __________O___ -1 16.6000 121.500 4 26 294
1936188N09142 1936 24 WP MM NOT_NAMED 1936-07-09 12:00:00 NR 16.9654 120.667 main 0 0 __________P___ -1 16.9654 120.667 4 27 297
1936188N09142 1936 24 WP MM NOT_NAMED 1936-07-09 15:00:00 NR 17.6143 119.431 main 95 96 __________P___ -1 17.6143 119.431 4 26 302
1936188N09142 1936 24 WP MM NOT_NAMED 1936-07-09 18:00:00 NR 18.3323 118.329 main 225 229 __________P___ -1 18.3323 118.329 4 23 308
1936188N09142 1936 24 WP MM NOT_NAMED 1936-07-09 21:00:00 NR 19.0630 117.495 main 335 335 __________P___ -1 19.0630 117.495 4 21 315
1936188N09142 1936 24 WP MM NOT_NAMED 1936-07-09 22:00:00 NR 19.3000 117.300 main 361 361 __________O___ -1 19.3000 117.300 4 15 332
1936188N09142 1936 24 WP MM NOT_NAMED 1936-07-10 00:00:00 NR 19.7226 117.120 main 361 297 __________P___ -1 19.7226 117.120 4 13 352
1936188N09142 1936 24 WP MM NOT_NAMED 1936-07-10 03:00:00 NR 20.3470 117.144 main 297 231 __________P___ -1 20.3470 117.144 4 13 11
1936188N09142 1936 24 WP MM NOT_NAMED 1936-07-10 06:00:00 NR 20.9671 117.372 main 231 184 __________P___ -1 20.9671 117.372 4 13 20
1936188N09142 1936 24 WP MM NOT_NAMED 1936-07-10 09:00:00 NR 21.5902 117.635 main 184 174 __________P___ -1 21.5902 117.635 4 13 20
1936188N09142 1936 24 WP MM NOT_NAMED 1936-07-10 10:00:00 NR 21.8000 117.700 main 174 154 __________O___ -1 21.8000 117.700 4 13 11
1936188N09142 1936 24 WP MM NOT_NAMED 1936-07-10 12:00:00 NR 22.2239 117.769 main 154 89 __________P___ -1 22.2239 117.769 4 13 2
1936188N09142 1936 24 WP MM NOT_NAMED 1936-07-10 15:00:00 NR 22.8692 117.740 main 89 22 __________P___ -1 22.8692 117.740 4 13 353
1936188N09142 1936 24 WP MM NOT_NAMED 1936-07-10 18:00:00 NR 23.5227 117.594 main 22 0 __________P___ -1 23.5227 117.594 4 14 346
1936188N09142 1936 24 WP MM NOT_NAMED 1936-07-10 21:00:00 NR 24.1804 117.378 main 0 0 __________P___ -1 24.1804 117.378 4 14 343
1936188N09142 1936 24 WP MM NOT_NAMED 1936-07-10 22:00:00 NR 24.4000 117.300 main 0 __________O___ -1 24.4000 117.300 4 14 342

Digital Typhoon Data and Search

About IBTrACS Database

This database is a web-friendly format of International Best Track Archive for Climate Stewardship (IBTrACS), a global best track data archive curated by NOAA dating back to 1842.

Updated: 2021-12-03